Private Wetterstation Nrnberg - Katzwang
Wetterdaten: September 2014
Datum Temp. A. Feuchte A. Luftdruck Regen Wind Richtung Taupunkt Windchill Windben
01.09.2014 13,1 C 81 % 1017 hPa 0,0 l/m 0,0 km/h W-NW 9,9 C 13,1 C 1,0 km/h
02.09.2014 15,0 C 81 % 1018 hPa 0,0 l/m 0,0 km/h W-NW 11,8 C 15,0 C 1,0 km/h
03.09.2014 16,3 C 79 % 1018 hPa 0,0 l/m 7,2 km/h NO 12,5 C 15,8 C 8,2 km/h
04.09.2014 19,3 C 75 % 1014 hPa 0,0 l/m 1,0 km/h N-NO 14,7 C 19,3 C 2,0 km/h
05.09.2014 18,8 C 77 % 1012 hPa 0,0 l/m 3,6 km/h W-NW 14,5 C 18,4 C 4,6 km/h
06.09.2014 20,4 C 75 % 1010 hPa 0,0 l/m 0,0 km/h NO 15,7 C 20,4 C 1,0 km/h
07.09.2014 19,1 C 77 % 1012 hPa 5,2 l/m 1,4 km/h N-NO 14,8 C 19,1 C 2,4 km/h
08.09.2014 19,3 C 77 % 1013 hPa 0,5 l/m 0,0 km/h NO 15,2 C 19,3 C 1,0 km/h
09.09.2014 17,8 C 72 % 1015 hPa 0,0 l/m 0,0 km/h W-NW 12,4 C 17,8 C 1,0 km/h
10.09.2014 15,7 C 71 % 1014 hPa 0,0 l/m 6,7 km/h N-NO 10,3 C 14,4 C 7,7 km/h
11.09.2014 13,6 C 76 % 1013 hPa 0,0 l/m 1,4 km/h N-NO 9,4 C 13,6 C 2,3 km/h
12.09.2014 13,7 C 86 % 1012 hPa 19,2 l/m 3,3 km/h W-NW 11,3 C 13,3 C 4,3 km/h
13.09.2014 15,3 C 84 % 1017 hPa 1,6 l/m 3,8 km/h NO 12,5 C 15,0 C 4,8 km/h
14.09.2014 16,1 C 81 % 1015 hPa 0,0 l/m 2,4 km/h N-NO 12,8 C 15,8 C 3,4 km/h
15.09.2014 17,1 C 77 % 1014 hPa 0,5 l/m 2,7 km/h NO 13,0 C 16,8 C 3,7 km/h
16.09.2014 16,2 C 78 % 1013 hPa 0,0 l/m 2,7 km/h NO 12,2 C 15,9 C 3,7 km/h
17.09.2014 16,9 C 74 % 1011 hPa 0,0 l/m 2,9 km/h O 12,2 C 16,6 C 3,9 km/h
18.09.2014 18,5 C 73 % 1010 hPa 0,0 l/m 1,9 km/h O-NO 13,4 C 18,5 C 2,9 km/h
19.09.2014 19,2 C 74 % 1012 hPa 0,0 l/m 1,9 km/h NO 14,4 C 19,2 C 2,9 km/h
20.09.2014 17,9 C 81 % 1013 hPa 1,0 l/m 4,3 km/h NO 14,6 C 17,2 C 5,3 km/h
21.09.2014 14,7 C 85 % 1011 hPa 12,4 l/m 1,7 km/h W-NW 12,1 C 14,7 C 2,7 km/h
22.09.2014 10,3 C 81 % 1015 hPa 3,1 l/m 3,3 km/h W-NW 7,2 C 9,4 C 7,3 km/h
23.09.2014 10,5 C 73 % 1017 hPa 0,0 l/m 1,4 km/h W-NW 5,7 C 10,5 C 2,4 km/h
24.09.2014 12,4 C 72 % 1011 hPa 0,0 l/m 0,0 km/h W-NW 7,2 C 12,4 C 1,0 km/h
25.09.2014 12,1 C 77 % 1017 hPa 0,0 l/m 1,5 km/h W-NW 8,2 C 12,1 C 2,5 km/h
26.09.2014 14,8 C 75 % 1022 hPa 0,0 l/m 1,9 km/h W-NW 10,2 C 14,6 C 2,9 km/h
27.09.2014 14,8 C 77 % 1025 hPa 0,5 l/m 0,0 km/h N-NO 10,8 C 14,8 C 1,0 km/h
28.09.2014 14,9 C 76 % 1023 hPa 0,0 l/m 2,0 km/h NO 10,5 C 14,9 C 3,0 km/h
29.09.2014 16,5 C 74 % 1022 hPa 0,0 l/m 1,5 km/h O-NO 11,5 C 16,5 C 2,5 km/h
30.09.2014 17,3 C 77 % 1023 hPa 0,0 l/m 0,0 km/h N-NO 13,1 C 17,3 C 1,0 km/h
Min-Datum 24.09.14 10.09.14 24.09.14 9 Tage 01.09.14 - 24.09.14 22.09.14 01.09.14
Min-Zeit 04:10 15:10 17:00 - 00:00 - 04:10 20:30 00:00
Minimum 3,8 C 53 % 1009 hPa - 0,0 km/h - 1,0 C 3,1 C 1,0 km/h
Max-Datum 07.09.14 08.09.14 27.09.14 12.09.14 14.09.14 - 08.09.14 07.09.14 22.09.14
Max-Zeit 13:20 05:20 09:30 07:20 15:10 - 15:30 13:20 13:10
Maximum 26,5 C 86 % 1026 hPa 19,2 l/m 24,6 km/h
N-NO
- 18,9 C 26,5 C 39,3 km/h
W-NW
Durchschnitt 15,9 C 77 % 1015 hPa #44,0 l/m 2,0 km/h N-NO 11,8 C 15,7 C 3,1 km/h

Durchschnitt Minimum Temp.11,9 C
Durchschnitt Maximum Temp.21,0 C